sensor_id;sensor_type;location;lat;lon;timestamp;pressure;altitude;pressure_sealevel;temperature;humidity
74161;BME280;62512;-46.434;168.382;2022-09-17T00:00:27;102044;;;unknown;45.71
74161;BME280;62512;-46.434;168.382;2022-09-17T00:01:27;102048;;;unknown;45.66
74161;BME280;62512;-46.434;168.382;2022-09-17T00:02:27;102046;;;unknown;45.59
74161;BME280;62512;-46.434;168.382;2022-09-17T00:03:27;102047;;;unknown;45.68
74161;BME280;62512;-46.434;168.382;2022-09-17T00:04:27;102047;;;unknown;45.57
74161;BME280;62512;-46.434;168.382;2022-09-17T00:05:27;102046;;;unknown;45.22
74161;BME280;62512;-46.434;168.382;2022-09-17T00:07:27;102047;;;unknown;45.32
74161;BME280;62512;-46.434;168.382;2022-09-17T00:08:27;102047;;;unknown;45.32
74161;BME280;62512;-46.434;168.382;2022-09-17T00:09:27;102044;;;unknown;45.49
74161;BME280;62512;-46.434;168.382;2022-09-17T00:10:27;102049;;;unknown;45.45
74161;BME280;62512;-46.434;168.382;2022-09-17T00:11:28;102048;;;unknown;45.28
74161;BME280;62512;-46.434;168.382;2022-09-17T00:12:27;102048;;;unknown;45.26
74161;BME280;62512;-46.434;168.382;2022-09-17T00:13:27;102045;;;unknown;45.28
74161;BME280;62512;-46.434;168.382;2022-09-17T00:14:27;102041;;;unknown;45.18
74161;BME280;62512;-46.434;168.382;2022-09-17T00:16:28;102049;;;unknown;45.40
74161;BME280;62512;-46.434;168.382;2022-09-17T00:17:27;102043;;;unknown;45.03
74161;BME280;62512;-46.434;168.382;2022-09-17T00:18:27;102054;;;unknown;44.41
74161;BME280;62512;-46.434;168.382;2022-09-17T00:19:27;102054;;;unknown;44.41
74161;BME280;62512;-46.434;168.382;2022-09-17T00:20:27;102049;;;unknown;44.88
74161;BME280;62512;-46.434;168.382;2022-09-17T00:21:27;102048;;;unknown;44.88
74161;BME280;62512;-46.434;168.382;2022-09-17T00:22:27;102048;;;unknown;45.23
74161;BME280;62512;-46.434;168.382;2022-09-17T00:23:27;102050;;;unknown;45.50
74161;BME280;62512;-46.434;168.382;2022-09-17T00:24:27;102045;;;unknown;45.06
74161;BME280;62512;-46.434;168.382;2022-09-17T00:25:28;102049;;;unknown;44.37
74161;BME280;62512;-46.434;168.382;2022-09-17T00:26:28;102041;;;unknown;44.63
74161;BME280;62512;-46.434;168.382;2022-09-17T00:27:27;102041;;;unknown;44.63
74161;BME280;62512;-46.434;168.382;2022-09-17T00:28:27;102047;;;unknown;44.60
74161;BME280;62512;-46.434;168.382;2022-09-17T00:29:27;102048;;;unknown;44.88
74161;BME280;62512;-46.434;168.382;2022-09-17T00:30:27;102052;;;unknown;45.25
74161;BME280;62512;-46.434;168.382;2022-09-17T00:31:27;102049;;;unknown;45.52
74161;BME280;62512;-46.434;168.382;2022-09-17T00:32:27;102052;;;unknown;45.02
74161;BME280;62512;-46.434;168.382;2022-09-17T00:33:27;102050;;;unknown;45.13
74161;BME280;62512;-46.434;168.382;2022-09-17T00:34:27;102041;;;unknown;45.34
74161;BME280;62512;-46.434;168.382;2022-09-17T00:36:27;102042;;;unknown;45.06
74161;BME280;62512;-46.434;168.382;2022-09-17T00:37:27;102046;;;unknown;44.98
74161;BME280;62512;-46.434;168.382;2022-09-17T00:38:27;102050;;;unknown;44.83
74161;BME280;62512;-46.434;168.382;2022-09-17T00:40:27;102050;;;unknown;44.78
74161;BME280;62512;-46.434;168.382;2022-09-17T00:41:28;102050;;;unknown;44.77
74161;BME280;62512;-46.434;168.382;2022-09-17T00:42:27;102045;;;unknown;44.85
74161;BME280;62512;-46.434;168.382;2022-09-17T00:43:43;102044;;;unknown;44.74
74161;BME280;62512;-46.434;168.382;2022-09-17T00:44:45;102036;;;unknown;44.46
74161;BME280;62512;-46.434;168.382;2022-09-17T00:45:27;102044;;;unknown;43.93
74161;BME280;62512;-46.434;168.382;2022-09-17T00:46:30;102046;;;unknown;44.17
74161;BME280;62512;-46.434;168.382;2022-09-17T00:47:28;102050;;;unknown;44.38
74161;BME280;62512;-46.434;168.382;2022-09-17T00:48:27;102052;;;unknown;44.54
74161;BME280;62512;-46.434;168.382;2022-09-17T00:49:28;102051;;;unknown;44.51
74161;BME280;62512;-46.434;168.382;2022-09-17T00:50:29;102051;;;unknown;44.35
74161;BME280;62512;-46.434;168.382;2022-09-17T00:51:29;102047;;;unknown;44.39
74161;BME280;62512;-46.434;168.382;2022-09-17T00:54:27;102040;;;unknown;44.40
74161;BME280;62512;-46.434;168.382;2022-09-17T00:55:29;102044;;;unknown;44.28
74161;BME280;62512;-46.434;168.382;2022-09-17T00:56:28;102044;;;unknown;44.28
74161;BME280;62512;-46.434;168.382;2022-09-17T00:57:27;102038;;;unknown;44.30
74161;BME280;62512;-46.434;168.382;2022-09-17T00:58:27;102038;;;unknown;44.30
74161;BME280;62512;-46.434;168.382;2022-09-17T00:59:27;102040;;;unknown;44.44
74161;BME280;62512;-46.434;168.382;2022-09-17T01:00:28;102041;;;unknown;44.43
74161;BME280;62512;-46.434;168.382;2022-09-17T01:01:27;102039;;;unknown;44.59
74161;BME280;62512;-46.434;168.382;2022-09-17T01:02:27;102039;;;unknown;45.34
74161;BME280;62512;-46.434;168.382;2022-09-17T01:03:27;102035;;;unknown;45.36
74161;BME280;62512;-46.434;168.382;2022-09-17T01:04:27;102040;;;unknown;45.15
74161;BME280;62512;-46.434;168.382;2022-09-17T01:05:29;102039;;;unknown;44.61
74161;BME280;62512;-46.434;168.382;2022-09-17T01:06:29;102039;;;unknown;44.50
74161;BME280;62512;-46.434;168.382;2022-09-17T01:07:33;102040;;;unknown;44.68
74161;BME280;62512;-46.434;168.382;2022-09-17T01:09:28;102040;;;unknown;44.29
74161;BME280;62512;-46.434;168.382;2022-09-17T01:10:35;102034;;;unknown;44.11
74161;BME280;62512;-46.434;168.382;2022-09-17T01:11:32;102037;;;unknown;43.77
74161;BME280;62512;-46.434;168.382;2022-09-17T01:12:33;102038;;;unknown;43.64
74161;BME280;62512;-46.434;168.382;2022-09-17T01:13:29;102037;;;unknown;43.73
74161;BME280;62512;-46.434;168.382;2022-09-17T01:14:31;102034;;;unknown;43.76
74161;BME280;62512;-46.434;168.382;2022-09-17T01:15:29;102037;;;unknown;44.23
74161;BME280;62512;-46.434;168.382;2022-09-17T01:16:28;102038;;;unknown;44.24
74161;BME280;62512;-46.434;168.382;2022-09-17T01:17:28;102035;;;unknown;44.09
74161;BME280;62512;-46.434;168.382;2022-09-17T01:18:31;102036;;;unknown;44.07
74161;BME280;62512;-46.434;168.382;2022-09-17T01:19:35;102036;;;unknown;43.89
74161;BME280;62512;-46.434;168.382;2022-09-17T01:20:32;102035;;;unknown;43.72
74161;BME280;62512;-46.434;168.382;2022-09-17T01:21:31;102036;;;unknown;43.55
74161;BME280;62512;-46.434;168.382;2022-09-17T01:22:29;102037;;;unknown;43.41
74161;BME280;62512;-46.434;168.382;2022-09-17T01:23:52;102037;;;unknown;43.04
74161;BME280;62512;-46.434;168.382;2022-09-17T01:25:30;102033;;;unknown;42.71
74161;BME280;62512;-46.434;168.382;2022-09-17T01:26:33;102030;;;unknown;42.62
74161;BME280;62512;-46.434;168.382;2022-09-17T01:29:32;102032;;;unknown;42.69
74161;BME280;62512;-46.434;168.382;2022-09-17T01:30:30;102033;;;unknown;42.65
74161;BME280;62512;-46.434;168.382;2022-09-17T01:31:29;102032;;;unknown;43.04
74161;BME280;62512;-46.434;168.382;2022-09-17T01:32:28;102035;;;unknown;43.32
74161;BME280;62512;-46.434;168.382;2022-09-17T01:33:29;102031;;;unknown;42.99
74161;BME280;62512;-46.434;168.382;2022-09-17T01:34:27;102036;;;unknown;42.38
74161;BME280;62512;-46.434;168.382;2022-09-17T01:35:30;102034;;;unknown;41.89
74161;BME280;62512;-46.434;168.382;2022-09-17T01:36:33;102035;;;unknown;41.90
74161;BME280;62512;-46.434;168.382;2022-09-17T01:37:29;102029;;;unknown;42.03
74161;BME280;62512;-46.434;168.382;2022-09-17T01:38:28;102028;;;unknown;41.99
74161;BME280;62512;-46.434;168.382;2022-09-17T01:39:29;102027;;;unknown;41.67
74161;BME280;62512;-46.434;168.382;2022-09-17T01:40:28;102026;;;unknown;41.31
74161;BME280;62512;-46.434;168.382;2022-09-17T01:41:29;102027;;;unknown;41.33
74161;BME280;62512;-46.434;168.382;2022-09-17T01:42:28;102026;;;unknown;41.58
74161;BME280;62512;-46.434;168.382;2022-09-17T01:44:28;102026;;;unknown;41.43
74161;BME280;62512;-46.434;168.382;2022-09-17T01:45:29;102025;;;unknown;41.57
74161;BME280;62512;-46.434;168.382;2022-09-17T01:46:28;102021;;;unknown;41.58
74161;BME280;62512;-46.434;168.382;2022-09-17T01:47:29;102022;;;unknown;41.76
74161;BME280;62512;-46.434;168.382;2022-09-17T01:48:28;102017;;;unknown;41.98
74161;BME280;62512;-46.434;168.382;2022-09-17T01:49:27;102015;;;unknown;42.40
74161;BME280;62512;-46.434;168.382;2022-09-17T01:50:28;102014;;;unknown;42.55
74161;BME280;62512;-46.434;168.382;2022-09-17T01:51:27;102014;;;unknown;42.73
74161;BME280;62512;-46.434;168.382;2022-09-17T01:53:30;102014;;;unknown;42.58
74161;BME280;62512;-46.434;168.382;2022-09-17T01:54:27;102017;;;unknown;42.58
74161;BME280;62512;-46.434;168.382;2022-09-17T01:55:28;102020;;;unknown;43.16
74161;BME280;62512;-46.434;168.382;2022-09-17T01:56:28;102018;;;unknown;43.59
74161;BME280;62512;-46.434;168.382;2022-09-17T01:57:28;102019;;;unknown;43.94
74161;BME280;62512;-46.434;168.382;2022-09-17T01:58:27;102019;;;unknown;44.44
74161;BME280;62512;-46.434;168.382;2022-09-17T01:59:28;102015;;;unknown;45.19
74161;BME280;62512;-46.434;168.382;2022-09-17T02:00:27;102021;;;unknown;45.28
74161;BME280;62512;-46.434;168.382;2022-09-17T02:01:27;102024;;;unknown;45.49
74161;BME280;62512;-46.434;168.382;2022-09-17T02:02:28;102021;;;unknown;46.06
74161;BME280;62512;-46.434;168.382;2022-09-17T02:03:27;102021;;;unknown;46.06
74161;BME280;62512;-46.434;168.382;2022-09-17T02:04:28;102020;;;unknown;46.24
74161;BME280;62512;-46.434;168.382;2022-09-17T02:05:28;102015;;;unknown;46.23
74161;BME280;62512;-46.434;168.382;2022-09-17T02:06:28;102017;;;unknown;46.46
74161;BME280;62512;-46.434;168.382;2022-09-17T02:07:27;102017;;;unknown;46.66
74161;BME280;62512;-46.434;168.382;2022-09-17T02:08:28;102019;;;unknown;46.99
74161;BME280;62512;-46.434;168.382;2022-09-17T02:09:29;102020;;;unknown;47.11
74161;BME280;62512;-46.434;168.382;2022-09-17T02:11:27;102024;;;unknown;46.96
74161;BME280;62512;-46.434;168.382;2022-09-17T02:12:28;102021;;;unknown;47.23
74161;BME280;62512;-46.434;168.382;2022-09-17T02:13:29;102020;;;unknown;47.38
74161;BME280;62512;-46.434;168.382;2022-09-17T02:14:27;102022;;;unknown;47.49
74161;BME280;62512;-46.434;168.382;2022-09-17T02:15:28;102021;;;unknown;47.63
74161;BME280;62512;-46.434;168.382;2022-09-17T02:16:28;102022;;;unknown;47.73
74161;BME280;62512;-46.434;168.382;2022-09-17T02:17:29;102019;;;unknown;47.85
74161;BME280;62512;-46.434;168.382;2022-09-17T02:18:28;102018;;;unknown;47.57
74161;BME280;62512;-46.434;168.382;2022-09-17T02:19:28;102021;;;unknown;47.18
74161;BME280;62512;-46.434;168.382;2022-09-17T02:20:28;102022;;;unknown;47.09
74161;BME280;62512;-46.434;168.382;2022-09-17T02:21:29;102022;;;unknown;47.16
74161;BME280;62512;-46.434;168.382;2022-09-17T02:22:28;102022;;;unknown;47.19
74161;BME280;62512;-46.434;168.382;2022-09-17T02:23:28;102026;;;unknown;47.28
74161;BME280;62512;-46.434;168.382;2022-09-17T02:24:29;102021;;;unknown;47.25
74161;BME280;62512;-46.434;168.382;2022-09-17T02:25:30;102022;;;unknown;47.09
74161;BME280;62512;-46.434;168.382;2022-09-17T02:26:27;102022;;;unknown;47.36
74161;BME280;62512;-46.434;168.382;2022-09-17T02:27:29;102019;;;unknown;47.62
74161;BME280;62512;-46.434;168.382;2022-09-17T02:28:30;102022;;;unknown;47.86
74161;BME280;62512;-46.434;168.382;2022-09-17T02:29:28;102021;;;unknown;47.72
74161;BME280;62512;-46.434;168.382;2022-09-17T02:30:27;102023;;;unknown;47.71
74161;BME280;62512;-46.434;168.382;2022-09-17T02:31:27;102021;;;unknown;47.52
74161;BME280;62512;-46.434;168.382;2022-09-17T02:32:27;102021;;;unknown;47.68
74161;BME280;62512;-46.434;168.382;2022-09-17T02:33:27;102021;;;unknown;47.68
74161;BME280;62512;-46.434;168.382;2022-09-17T02:35:27;102028;;;unknown;47.61
74161;BME280;62512;-46.434;168.382;2022-09-17T02:36:27;102029;;;unknown;47.92
74161;BME280;62512;-46.434;168.382;2022-09-17T02:38:28;102033;;;unknown;48.30
74161;BME280;62512;-46.434;168.382;2022-09-17T02:39:27;102032;;;unknown;48.35
74161;BME280;62512;-46.434;168.382;2022-09-17T02:41:30;102032;;;unknown;47.99
74161;BME280;62512;-46.434;168.382;2022-09-17T02:42:29;102025;;;unknown;47.96
74161;BME280;62512;-46.434;168.382;2022-09-17T02:43:29;102026;;;unknown;48.15
74161;BME280;62512;-46.434;168.382;2022-09-17T02:44:29;102026;;;unknown;48.43
74161;BME280;62512;-46.434;168.382;2022-09-17T02:45:31;102023;;;unknown;47.76
74161;BME280;62512;-46.434;168.382;2022-09-17T02:46:32;102028;;;unknown;47.62
74161;BME280;62512;-46.434;168.382;2022-09-17T02:48:31;102028;;;unknown;48.08
74161;BME280;62512;-46.434;168.382;2022-09-17T02:49:30;102030;;;unknown;47.63
74161;BME280;62512;-46.434;168.382;2022-09-17T02:50:31;102023;;;unknown;47.28
74161;BME280;62512;-46.434;168.382;2022-09-17T02:52:30;102022;;;unknown;47.70
74161;BME280;62512;-46.434;168.382;2022-09-17T02:53:31;102022;;;unknown;47.78
74161;BME280;62512;-46.434;168.382;2022-09-17T02:54:28;102024;;;unknown;47.62
74161;BME280;62512;-46.434;168.382;2022-09-17T02:55:30;102025;;;unknown;47.68
74161;BME280;62512;-46.434;168.382;2022-09-17T02:56:28;102023;;;unknown;47.90
74161;BME280;62512;-46.434;168.382;2022-09-17T02:57:28;102021;;;unknown;47.71
74161;BME280;62512;-46.434;168.382;2022-09-17T02:58:28;102026;;;unknown;47.41
74161;BME280;62512;-46.434;168.382;2022-09-17T02:59:28;102025;;;unknown;47.11
74161;BME280;62512;-46.434;168.382;2022-09-17T03:01:30;102022;;;unknown;47.30
74161;BME280;62512;-46.434;168.382;2022-09-17T03:03:28;102020;;;unknown;47.36
74161;BME280;62512;-46.434;168.382;2022-09-17T03:04:08;0;;;unknown;unavailable
74161;BME280;62512;-46.434;168.382;2022-09-17T03:05:27;102018;;;unknown;47.00
74161;BME280;62512;-46.434;168.382;2022-09-17T03:06:27;102020;;;unknown;46.96
74161;BME280;62512;-46.434;168.382;2022-09-17T03:07:27;102020;;;unknown;46.96
74161;BME280;62512;-46.434;168.382;2022-09-17T03:08:28;102016;;;unknown;47.04
74161;BME280;62512;-46.434;168.382;2022-09-17T03:09:27;102017;;;unknown;47.00
74161;BME280;62512;-46.434;168.382;2022-09-17T03:10:27;102017;;;unknown;47.10
74161;BME280;62512;-46.434;168.382;2022-09-17T03:11:27;102014;;;unknown;46.88
74161;BME280;62512;-46.434;168.382;2022-09-17T03:13:27;102018;;;unknown;46.85
74161;BME280;62512;-46.434;168.382;2022-09-17T03:14:27;102015;;;unknown;46.97
74161;BME280;62512;-46.434;168.382;2022-09-17T03:15:28;102011;;;unknown;46.95
74161;BME280;62512;-46.434;168.382;2022-09-17T03:17:27;102014;;;unknown;46.66
74161;BME280;62512;-46.434;168.382;2022-09-17T03:18:27;102016;;;unknown;46.46
74161;BME280;62512;-46.434;168.382;2022-09-17T03:19:27;102014;;;unknown;46.46
74161;BME280;62512;-46.434;168.382;2022-09-17T03:20:27;102015;;;unknown;46.73
74161;BME280;62512;-46.434;168.382;2022-09-17T03:21:27;102015;;;unknown;46.66
74161;BME280;62512;-46.434;168.382;2022-09-17T03:22:27;102013;;;unknown;46.36
74161;BME280;62512;-46.434;168.382;2022-09-17T03:23:27;102014;;;unknown;46.30
74161;BME280;62512;-46.434;168.382;2022-09-17T03:24:27;102013;;;unknown;46.47
74161;BME280;62512;-46.434;168.382;2022-09-17T03:25:27;102015;;;unknown;46.63
74161;BME280;62512;-46.434;168.382;2022-09-17T03:26:27;102017;;;unknown;46.63
74161;BME280;62512;-46.434;168.382;2022-09-17T03:27:27;102015;;;unknown;46.40
74161;BME280;62512;-46.434;168.382;2022-09-17T03:28:27;102007;;;unknown;46.31
74161;BME280;62512;-46.434;168.382;2022-09-17T03:29:27;102012;;;unknown;46.28
74161;BME280;62512;-46.434;168.382;2022-09-17T03:30:27;102010;;;unknown;46.42
74161;BME280;62512;-46.434;168.382;2022-09-17T03:31:27;102013;;;unknown;46.27
74161;BME280;62512;-46.434;168.382;2022-09-17T03:32:27;102005;;;unknown;46.47
74161;BME280;62512;-46.434;168.382;2022-09-17T03:33:27;102006;;;unknown;46.69
74161;BME280;62512;-46.434;168.382;2022-09-17T03:34:27;102004;;;unknown;46.97
74161;BME280;62512;-46.434;168.382;2022-09-17T03:35:27;102000;;;unknown;47.06
74161;BME280;62512;-46.434;168.382;2022-09-17T03:36:27;102000;;;unknown;46.98
74161;BME280;62512;-46.434;168.382;2022-09-17T03:38:27;101998;;;unknown;47.28
74161;BME280;62512;-46.434;168.382;2022-09-17T03:39:27;101996;;;unknown;47.44
74161;BME280;62512;-46.434;168.382;2022-09-17T03:40:27;101996;;;unknown;47.62
74161;BME280;62512;-46.434;168.382;2022-09-17T03:41:27;101990;;;unknown;47.55
74161;BME280;62512;-46.434;168.382;2022-09-17T03:42:27;101996;;;unknown;47.38
74161;BME280;62512;-46.434;168.382;2022-09-17T03:43:27;101995;;;unknown;47.29
74161;BME280;62512;-46.434;168.382;2022-09-17T03:44:27;101996;;;unknown;47.26
74161;BME280;62512;-46.434;168.382;2022-09-17T03:45:27;101996;;;unknown;47.30
74161;BME280;62512;-46.434;168.382;2022-09-17T03:46:27;101999;;;unknown;47.82
74161;BME280;62512;-46.434;168.382;2022-09-17T03:47:27;101998;;;unknown;48.09
74161;BME280;62512;-46.434;168.382;2022-09-17T03:48:27;101998;;;unknown;48.09
74161;BME280;62512;-46.434;168.382;2022-09-17T03:49:27;102001;;;unknown;48.25
74161;BME280;62512;-46.434;168.382;2022-09-17T03:50:27;102004;;;unknown;48.28
74161;BME280;62512;-46.434;168.382;2022-09-17T03:51:27;102003;;;unknown;48.04
74161;BME280;62512;-46.434;168.382;2022-09-17T03:52:27;102003;;;unknown;47.84
74161;BME280;62512;-46.434;168.382;2022-09-17T03:53:27;102002;;;unknown;47.89
74161;BME280;62512;-46.434;168.382;2022-09-17T03:54:27;102002;;;unknown;48.07
74161;BME280;62512;-46.434;168.382;2022-09-17T03:55:27;102009;;;unknown;48.42
74161;BME280;62512;-46.434;168.382;2022-09-17T03:56:27;102006;;;unknown;48.07
74161;BME280;62512;-46.434;168.382;2022-09-17T03:57:27;102003;;;unknown;48.09
74161;BME280;62512;-46.434;168.382;2022-09-17T03:58:27;102000;;;unknown;47.81
74161;BME280;62512;-46.434;168.382;2022-09-17T04:00:27;102003;;;unknown;47.44
74161;BME280;62512;-46.434;168.382;2022-09-17T04:01:27;102008;;;unknown;47.62
74161;BME280;62512;-46.434;168.382;2022-09-17T04:02:27;102006;;;unknown;47.92
74161;BME280;62512;-46.434;168.382;2022-09-17T04:03:27;102005;;;unknown;47.91
74161;BME280;62512;-46.434;168.382;2022-09-17T04:04:27;102005;;;unknown;47.82
74161;BME280;62512;-46.434;168.382;2022-09-17T04:05:27;102005;;;unknown;47.38
74161;BME280;62512;-46.434;168.382;2022-09-17T04:06:27;102008;;;unknown;47.13
74161;BME280;62512;-46.434;168.382;2022-09-17T04:07:27;102005;;;unknown;47.14
74161;BME280;62512;-46.434;168.382;2022-09-17T04:08:27;102004;;;unknown;47.18
74161;BME280;62512;-46.434;168.382;2022-09-17T04:09:27;102005;;;unknown;47.41
74161;BME280;62512;-46.434;168.382;2022-09-17T04:10:27;102011;;;unknown;47.48
74161;BME280;62512;-46.434;168.382;2022-09-17T04:11:27;102010;;;unknown;47.41
74161;BME280;62512;-46.434;168.382;2022-09-17T04:12:27;102014;;;unknown;47.68
74161;BME280;62512;-46.434;168.382;2022-09-17T04:15:27;102018;;;unknown;48.72
74161;BME280;62512;-46.434;168.382;2022-09-17T04:16:27;102021;;;unknown;48.82
74161;BME280;62512;-46.434;168.382;2022-09-17T04:17:27;102019;;;unknown;48.83
74161;BME280;62512;-46.434;168.382;2022-09-17T04:18:27;102020;;;unknown;48.92
74161;BME280;62512;-46.434;168.382;2022-09-17T04:19:27;102020;;;unknown;48.92
74161;BME280;62512;-46.434;168.382;2022-09-17T04:20:27;102019;;;unknown;48.80
74161;BME280;62512;-46.434;168.382;2022-09-17T04:21:27;102014;;;unknown;48.90
74161;BME280;62512;-46.434;168.382;2022-09-17T04:22:27;102016;;;unknown;48.65
74161;BME280;62512;-46.434;168.382;2022-09-17T04:23:27;102012;;;unknown;48.60
74161;BME280;62512;-46.434;168.382;2022-09-17T04:24:27;102012;;;unknown;47.99
74161;BME280;62512;-46.434;168.382;2022-09-17T04:25:27;102013;;;unknown;47.89
74161;BME280;62512;-46.434;168.382;2022-09-17T04:26:27;102010;;;unknown;47.84
74161;BME280;62512;-46.434;168.382;2022-09-17T04:27:27;102011;;;unknown;48.08
74161;BME280;62512;-46.434;168.382;2022-09-17T04:28:27;102006;;;unknown;48.43
74161;BME280;62512;-46.434;168.382;2022-09-17T04:29:27;102013;;;unknown;48.67
74161;BME280;62512;-46.434;168.382;2022-09-17T04:31:27;102016;;;unknown;48.40
74161;BME280;62512;-46.434;168.382;2022-09-17T04:32:27;102015;;;unknown;48.24
74161;BME280;62512;-46.434;168.382;2022-09-17T04:33:27;102016;;;unknown;48.11
74161;BME280;62512;-46.434;168.382;2022-09-17T04:34:27;102010;;;unknown;48.15
74161;BME280;62512;-46.434;168.382;2022-09-17T04:35:27;102016;;;unknown;48.44
74161;BME280;62512;-46.434;168.382;2022-09-17T04:36:27;102017;;;unknown;48.75
74161;BME280;62512;-46.434;168.382;2022-09-17T04:37:27;102017;;;unknown;48.99
74161;BME280;62512;-46.434;168.382;2022-09-17T04:38:27;102020;;;unknown;49.13
74161;BME280;62512;-46.434;168.382;2022-09-17T04:39:27;102018;;;unknown;49.24
74161;BME280;62512;-46.434;168.382;2022-09-17T04:41:27;102021;;;unknown;48.95
74161;BME280;62512;-46.434;168.382;2022-09-17T04:42:27;102016;;;unknown;49.00
74161;BME280;62512;-46.434;168.382;2022-09-17T04:43:27;102015;;;unknown;48.91
74161;BME280;62512;-46.434;168.382;2022-09-17T04:45:27;102020;;;unknown;49.17
74161;BME280;62512;-46.434;168.382;2022-09-17T04:46:27;102015;;;unknown;49.18
74161;BME280;62512;-46.434;168.382;2022-09-17T04:47:27;102018;;;unknown;49.40
74161;BME280;62512;-46.434;168.382;2022-09-17T04:48:27;102017;;;unknown;49.50
74161;BME280;62512;-46.434;168.382;2022-09-17T04:49:27;102017;;;unknown;49.14
74161;BME280;62512;-46.434;168.382;2022-09-17T04:51:27;102023;;;unknown;48.10
74161;BME280;62512;-46.434;168.382;2022-09-17T04:52:27;102026;;;unknown;47.66
74161;BME280;62512;-46.434;168.382;2022-09-17T04:53:27;102027;;;unknown;47.55
74161;BME280;62512;-46.434;168.382;2022-09-17T04:54:27;102027;;;unknown;47.77
74161;BME280;62512;-46.434;168.382;2022-09-17T04:55:27;102029;;;unknown;47.72
74161;BME280;62512;-46.434;168.382;2022-09-17T04:56:27;102032;;;unknown;47.51
74161;BME280;62512;-46.434;168.382;2022-09-17T04:57:27;102036;;;unknown;47.47
74161;BME280;62512;-46.434;168.382;2022-09-17T04:58:27;102033;;;unknown;47.32
74161;BME280;62512;-46.434;168.382;2022-09-17T04:59:27;102033;;;unknown;47.27
74161;BME280;62512;-46.434;168.382;2022-09-17T05:01:27;102033;;;unknown;47.40
74161;BME280;62512;-46.434;168.382;2022-09-17T05:02:27;102035;;;unknown;47.27
74161;BME280;62512;-46.434;168.382;2022-09-17T05:03:27;102035;;;unknown;46.99
74161;BME280;62512;-46.434;168.382;2022-09-17T05:04:27;102035;;;unknown;47.27
74161;BME280;62512;-46.434;168.382;2022-09-17T05:05:27;102032;;;unknown;47.56
74161;BME280;62512;-46.434;168.382;2022-09-17T05:06:27;102038;;;unknown;47.32
74161;BME280;62512;-46.434;168.382;2022-09-17T05:07:27;102038;;;unknown;47.18
74161;BME280;62512;-46.434;168.382;2022-09-17T05:09:27;102036;;;unknown;46.82
74161;BME280;62512;-46.434;168.382;2022-09-17T05:11:27;102036;;;unknown;46.79
74161;BME280;62512;-46.434;168.382;2022-09-17T05:12:27;102035;;;unknown;46.53
74161;BME280;62512;-46.434;168.382;2022-09-17T05:13:27;102036;;;unknown;46.67
74161;BME280;62512;-46.434;168.382;2022-09-17T05:14:27;102038;;;unknown;47.06
74161;BME280;62512;-46.434;168.382;2022-09-17T05:15:27;102038;;;unknown;47.44
74161;BME280;62512;-46.434;168.382;2022-09-17T05:16:27;102040;;;unknown;47.33
74161;BME280;62512;-46.434;168.382;2022-09-17T05:17:27;102038;;;unknown;47.29
74161;BME280;62512;-46.434;168.382;2022-09-17T05:18:27;102038;;;unknown;46.96
74161;BME280;62512;-46.434;168.382;2022-09-17T05:19:27;102039;;;unknown;46.95
74161;BME280;62512;-46.434;168.382;2022-09-17T05:20:27;102033;;;unknown;47.19
74161;BME280;62512;-46.434;168.382;2022-09-17T05:21:27;102038;;;unknown;47.39
74161;BME280;62512;-46.434;168.382;2022-09-17T05:22:27;102038;;;unknown;47.72
74161;BME280;62512;-46.434;168.382;2022-09-17T05:23:28;102041;;;unknown;48.23
74161;BME280;62512;-46.434;168.382;2022-09-17T05:24:27;102041;;;unknown;48.71
74161;BME280;62512;-46.434;168.382;2022-09-17T05:25:27;102044;;;unknown;49.00
74161;BME280;62512;-46.434;168.382;2022-09-17T05:26:27;102046;;;unknown;49.01
74161;BME280;62512;-46.434;168.382;2022-09-17T05:27:27;102046;;;unknown;48.82
74161;BME280;62512;-46.434;168.382;2022-09-17T05:28:27;102041;;;unknown;48.99
74161;BME280;62512;-46.434;168.382;2022-09-17T05:29:27;102043;;;unknown;48.67
74161;BME280;62512;-46.434;168.382;2022-09-17T05:30:27;102040;;;unknown;48.24
74161;BME280;62512;-46.434;168.382;2022-09-17T05:31:27;102043;;;unknown;48.54
74161;BME280;62512;-46.434;168.382;2022-09-17T05:32:27;102041;;;unknown;48.55
74161;BME280;62512;-46.434;168.382;2022-09-17T05:33:27;102042;;;unknown;48.45
74161;BME280;62512;-46.434;168.382;2022-09-17T05:34:27;102046;;;unknown;48.10
74161;BME280;62512;-46.434;168.382;2022-09-17T05:35:27;102051;;;unknown;48.25
74161;BME280;62512;-46.434;168.382;2022-09-17T05:36:27;102053;;;unknown;48.26
74161;BME280;62512;-46.434;168.382;2022-09-17T05:37:27;102048;;;unknown;48.12
74161;BME280;62512;-46.434;168.382;2022-09-17T05:39:27;102050;;;unknown;49.11